createdAt,value
2019-02-02T00:00:03.009Z,0.00
2019-02-02T00:01:03.030Z,0.00
2019-02-02T00:02:03.021Z,0.00
2019-02-02T00:03:03.034Z,0.00
2019-02-02T00:04:03.044Z,0.00
2019-02-02T00:05:03.050Z,0.00
2019-02-02T00:06:03.116Z,0.00
2019-02-02T00:07:03.297Z,0.00
2019-02-02T00:08:03.081Z,0.00
2019-02-02T00:09:03.084Z,0.00
2019-02-02T00:10:03.098Z,0.00
2019-02-02T00:11:03.104Z,0.00
2019-02-02T00:12:03.112Z,0.00
2019-02-02T00:13:03.121Z,4.00
2019-02-02T00:14:03.140Z,0.00
2019-02-02T00:15:03.200Z,0.00
2019-02-02T00:16:03.157Z,0.00
2019-02-02T00:17:03.348Z,0.00
2019-02-02T00:18:03.169Z,0.00
2019-02-02T00:19:03.179Z,0.00
2019-02-02T00:20:03.223Z,0.00
2019-02-02T00:21:03.193Z,0.00
2019-02-02T00:22:03.217Z,0.00
2019-02-02T00:23:03.213Z,0.00
2019-02-02T00:24:03.228Z,0.00
2019-02-02T00:25:03.241Z,0.00
2019-02-02T00:26:03.244Z,0.00
2019-02-02T00:27:03.251Z,0.00
2019-02-02T00:28:03.258Z,0.00
2019-02-02T00:29:03.265Z,0.00
2019-02-02T00:30:03.296Z,0.00
2019-02-02T00:31:03.287Z,0.00
2019-02-02T00:32:03.298Z,0.00
2019-02-02T00:33:03.302Z,0.00
2019-02-02T00:34:03.312Z,0.00
2019-02-02T00:35:03.322Z,0.00
2019-02-02T00:36:03.526Z,0.00
2019-02-02T00:37:03.347Z,0.00
2019-02-02T00:38:03.360Z,0.00
2019-02-02T00:39:03.355Z,0.00
2019-02-02T00:40:03.367Z,0.00
2019-02-02T00:41:03.387Z,0.00
2019-02-02T00:42:03.384Z,0.00
2019-02-02T00:43:03.395Z,0.00
2019-02-02T00:44:03.411Z,0.00
2019-02-02T00:45:03.431Z,0.00
2019-02-02T00:46:03.644Z,0.00
2019-02-02T00:47:03.429Z,0.00
2019-02-02T00:48:03.441Z,0.00
2019-02-02T00:49:03.452Z,0.00
2019-02-02T00:50:03.459Z,0.00
2019-02-02T00:51:03.476Z,0.00
2019-02-02T00:52:03.505Z,0.00
2019-02-02T00:53:03.526Z,0.00
2019-02-02T00:54:03.603Z,0.00
2019-02-02T00:55:03.509Z,0.00
2019-02-02T00:56:03.513Z,0.00
2019-02-02T00:57:03.517Z,0.00
2019-02-02T00:58:03.556Z,0.00
2019-02-02T00:59:03.541Z,0.00
2019-02-02T01:00:03.549Z,0.00
2019-02-02T01:01:03.564Z,0.00
2019-02-02T01:02:03.576Z,0.00
2019-02-02T01:03:03.573Z,0.00
2019-02-02T01:04:03.591Z,0.00
2019-02-02T01:05:03.596Z,0.00
2019-02-02T01:06:04.965Z,0.00
2019-02-02T01:07:03.625Z,0.00
2019-02-02T01:08:03.621Z,4.00
2019-02-02T01:09:03.628Z,4.00
2019-02-02T01:10:03.639Z,4.00
2019-02-02T01:11:03.701Z,0.00
2019-02-02T01:12:03.660Z,0.00
2019-02-02T01:13:03.671Z,0.00
2019-02-02T01:14:03.807Z,4.00
2019-02-02T01:15:03.807Z,4.00
2019-02-02T01:16:03.724Z,4.00
2019-02-02T01:17:03.709Z,0.00
2019-02-02T01:18:03.764Z,0.00
2019-02-02T01:19:03.727Z,0.00
2019-02-02T01:20:03.744Z,0.00
2019-02-02T01:21:03.742Z,0.00
2019-02-02T01:22:03.778Z,0.00
2019-02-02T01:23:03.781Z,0.00
2019-02-02T01:24:03.764Z,4.00
2019-02-02T01:25:03.776Z,4.00
2019-02-02T01:26:03.793Z,0.00
2019-02-02T01:27:03.809Z,0.00
2019-02-02T01:28:05.751Z,0.00
2019-02-02T01:29:03.825Z,0.00
2019-02-02T01:30:03.819Z,4.00
2019-02-02T01:31:03.830Z,4.00
2019-02-02T01:32:03.845Z,4.00
2019-02-02T01:33:03.862Z,4.00
2019-02-02T01:34:03.861Z,0.00
2019-02-02T01:35:03.867Z,0.00
2019-02-02T01:36:03.875Z,0.00
2019-02-02T01:37:03.885Z,0.00
2019-02-02T01:38:03.892Z,0.00
2019-02-02T01:39:03.912Z,0.00
2019-02-02T01:40:03.918Z,0.00
2019-02-02T01:41:03.922Z,4.00
2019-02-02T01:42:03.932Z,0.00
2019-02-02T01:43:03.956Z,0.00
2019-02-02T01:44:03.947Z,0.00
2019-02-02T01:45:03.958Z,4.00
2019-02-02T01:46:04.009Z,0.00
2019-02-02T01:47:03.977Z,0.00
2019-02-02T01:48:03.994Z,0.00
2019-02-02T01:49:04.010Z,0.00
2019-02-02T01:50:04.010Z,0.00
2019-02-02T01:51:04.011Z,0.00
2019-02-02T01:52:04.037Z,0.00
2019-02-02T01:53:04.039Z,0.00
2019-02-02T01:54:04.039Z,0.00
2019-02-02T01:55:04.045Z,0.00
2019-02-02T01:56:04.062Z,0.00
2019-02-02T01:57:04.066Z,0.00
2019-02-02T01:58:04.080Z,0.00
2019-02-02T01:59:04.083Z,0.00
2019-02-02T02:00:04.097Z,0.00
2019-02-02T02:01:04.119Z,0.00
2019-02-02T02:02:04.111Z,0.00
2019-02-02T02:03:04.126Z,0.00
2019-02-02T02:04:04.131Z,0.00
2019-02-02T02:05:04.137Z,0.00
2019-02-02T02:06:04.147Z,0.00
2019-02-02T02:07:04.156Z,0.00
2019-02-02T02:08:04.163Z,0.00
2019-02-02T02:09:04.183Z,0.00
2019-02-02T02:10:04.182Z,0.00
2019-02-02T02:11:04.191Z,0.00
2019-02-02T02:12:04.202Z,0.00
2019-02-02T02:13:04.214Z,0.00
2019-02-02T02:14:04.226Z,0.00
2019-02-02T02:15:04.225Z,0.00
2019-02-02T02:16:04.250Z,0.00
2019-02-02T02:17:04.260Z,0.00
2019-02-02T02:18:04.318Z,0.00
2019-02-02T02:19:04.286Z,0.00
2019-02-02T02:20:04.278Z,0.00
2019-02-02T02:21:04.283Z,0.00
2019-02-02T02:22:04.291Z,0.00
2019-02-02T02:23:04.300Z,0.00
2019-02-02T02:24:04.317Z,0.00
2019-02-02T02:25:04.318Z,0.00
2019-02-02T02:26:04.328Z,0.00
2019-02-02T02:27:04.333Z,0.00
2019-02-02T02:28:04.349Z,0.00
2019-02-02T02:29:04.359Z,0.00
2019-02-02T02:30:04.366Z,0.00
2019-02-02T02:31:04.371Z,0.00
2019-02-02T02:32:04.391Z,0.00
2019-02-02T02:33:04.392Z,0.00
2019-02-02T02:34:04.397Z,0.00
2019-02-02T02:35:04.413Z,0.00
2019-02-02T02:36:04.418Z,0.00
2019-02-02T02:37:04.461Z,0.00
2019-02-02T02:38:04.432Z,0.00
2019-02-02T02:39:04.447Z,0.00
2019-02-02T02:40:04.465Z,0.00
2019-02-02T02:41:04.466Z,0.00
2019-02-02T02:42:04.476Z,0.00
2019-02-02T02:43:04.482Z,0.00
2019-02-02T02:44:04.487Z,0.00
2019-02-02T02:45:04.498Z,0.00
2019-02-02T02:46:04.510Z,0.00
2019-02-02T02:47:04.514Z,0.00
2019-02-02T02:48:04.527Z,0.00
2019-02-02T02:49:04.634Z,4.00
2019-02-02T02:50:04.554Z,4.00
2019-02-02T02:51:04.562Z,0.00
2019-02-02T02:52:04.567Z,4.00
2019-02-02T02:53:04.571Z,4.00
2019-02-02T02:54:04.575Z,4.00
2019-02-02T02:55:04.584Z,0.00
2019-02-02T02:56:04.604Z,0.00
2019-02-02T02:57:04.606Z,0.00
2019-02-02T02:58:04.615Z,0.00
2019-02-02T02:59:04.626Z,0.00
2019-02-02T03:00:04.634Z,0.00
2019-02-02T03:01:04.644Z,0.00
2019-02-02T03:02:04.647Z,0.00
2019-02-02T03:03:04.660Z,0.00
2019-02-02T03:04:04.667Z,0.00
2019-02-02T03:05:04.678Z,0.00
2019-02-02T03:06:04.688Z,0.00
2019-02-02T03:07:04.691Z,0.00
2019-02-02T03:08:04.706Z,0.00
2019-02-02T03:09:04.712Z,0.00
2019-02-02T03:10:04.723Z,4.00
2019-02-02T03:11:04.732Z,4.00
2019-02-02T03:12:04.750Z,4.00
2019-02-02T03:13:04.750Z,0.00
2019-02-02T03:14:04.768Z,0.00
2019-02-02T03:15:04.765Z,0.00
2019-02-02T03:16:04.787Z,0.00
2019-02-02T03:17:04.795Z,0.00
2019-02-02T03:18:05.007Z,0.00
2019-02-02T03:19:04.838Z,0.00
2019-02-02T03:20:05.177Z,4.00
2019-02-02T03:21:04.838Z,4.00
2019-02-02T03:22:04.837Z,4.00
2019-02-02T03:23:04.839Z,4.00
2019-02-02T03:24:04.864Z,4.00
2019-02-02T03:25:04.860Z,0.00
2019-02-02T03:26:04.878Z,0.00
2019-02-02T03:27:04.877Z,0.00
2019-02-02T03:28:04.893Z,0.00
2019-02-02T03:29:04.895Z,4.00
2019-02-02T03:30:04.922Z,4.00
2019-02-02T03:31:04.920Z,4.00
2019-02-02T03:32:04.920Z,0.00
2019-02-02T03:33:04.937Z,0.00
2019-02-02T03:34:04.945Z,0.00
2019-02-02T03:35:04.951Z,0.00
2019-02-02T03:36:04.964Z,0.00
2019-02-02T03:37:04.969Z,0.00
2019-02-02T03:38:04.990Z,0.00
2019-02-02T03:39:04.991Z,0.00
2019-02-02T03:40:04.999Z,4.00
2019-02-02T03:41:05.014Z,0.00
2019-02-02T03:42:05.027Z,0.00
2019-02-02T03:43:05.037Z,0.00
2019-02-02T03:44:05.149Z,0.00
2019-02-02T03:45:05.050Z,0.00
2019-02-02T03:46:05.054Z,4.00
2019-02-02T03:47:05.075Z,4.00
2019-02-02T03:48:05.114Z,4.00
2019-02-02T03:49:05.134Z,0.00
2019-02-02T03:50:05.094Z,4.00
2019-02-02T03:51:05.094Z,4.00
2019-02-02T03:52:05.115Z,4.00
2019-02-02T03:53:05.118Z,0.00
2019-02-02T03:54:08.775Z,0.00
2019-02-02T03:55:05.149Z,0.00
2019-02-02T03:56:05.149Z,0.00
2019-02-02T03:57:05.155Z,0.00
2019-02-02T03:58:05.161Z,0.00
2019-02-02T03:59:07.057Z,0.00
2019-02-02T04:00:05.182Z,0.00
2019-02-02T04:01:05.196Z,0.00
2019-02-02T04:02:05.197Z,4.00
2019-02-02T04:03:05.211Z,0.00
2019-02-02T04:04:05.217Z,4.00
2019-02-02T04:05:05.237Z,0.00
2019-02-02T04:06:05.240Z,0.00
2019-02-02T04:07:05.250Z,0.00
2019-02-02T04:08:05.257Z,0.00
2019-02-02T04:09:05.271Z,0.00
2019-02-02T04:10:05.273Z,0.00
2019-02-02T04:11:05.301Z,0.00
2019-02-02T04:12:05.291Z,0.00
2019-02-02T04:13:05.315Z,0.00
2019-02-02T04:14:05.309Z,0.00
2019-02-02T04:15:05.322Z,0.00
2019-02-02T04:16:05.344Z,0.00
2019-02-02T04:17:05.338Z,0.00
2019-02-02T04:18:05.346Z,0.00
2019-02-02T04:19:05.353Z,0.00
2019-02-02T04:20:05.363Z,4.00
2019-02-02T04:21:05.384Z,4.00
2019-02-02T04:22:05.794Z,4.00
2019-02-02T04:23:05.514Z,0.00
2019-02-02T04:24:05.403Z,0.00
2019-02-02T04:25:05.416Z,0.00
2019-02-02T04:26:05.419Z,0.00
2019-02-02T04:27:05.428Z,0.00
2019-02-02T04:28:05.440Z,0.00
2019-02-02T04:29:05.455Z,0.00
2019-02-02T04:30:05.463Z,0.00
2019-02-02T04:31:05.469Z,0.00
2019-02-02T04:32:05.474Z,4.00
2019-02-02T04:33:05.484Z,0.00
2019-02-02T04:34:05.499Z,0.00
2019-02-02T04:35:05.508Z,0.00
2019-02-02T04:36:05.512Z,0.00
2019-02-02T04:37:05.537Z,0.00
2019-02-02T04:38:05.531Z,0.00
2019-02-02T04:39:05.536Z,0.00
2019-02-02T04:40:05.544Z,0.00
2019-02-02T04:41:05.569Z,0.00
2019-02-02T04:42:05.566Z,0.00
2019-02-02T04:43:05.588Z,4.00
2019-02-02T04:44:05.585Z,4.00
2019-02-02T04:45:05.811Z,4.00
2019-02-02T04:46:05.611Z,0.00
2019-02-02T04:47:05.748Z,0.00
2019-02-02T04:48:05.624Z,0.00
2019-02-02T04:49:05.632Z,0.00
2019-02-02T04:50:05.644Z,0.00
2019-02-02T04:51:05.650Z,0.00
2019-02-02T04:52:05.661Z,0.00
2019-02-02T04:53:05.669Z,0.00
2019-02-02T04:54:05.681Z,0.00
2019-02-02T04:55:05.689Z,0.00
2019-02-02T04:56:05.701Z,0.00
2019-02-02T04:57:05.711Z,0.00
2019-02-02T04:58:05.717Z,0.00
2019-02-02T04:59:05.723Z,0.00
2019-02-02T05:00:05.734Z,0.00
2019-02-02T05:01:05.744Z,0.00
2019-02-02T05:02:05.769Z,0.00
2019-02-02T05:03:05.762Z,4.00
2019-02-02T05:04:05.767Z,0.00
2019-02-02T05:05:05.796Z,0.00
2019-02-02T05:06:05.789Z,4.00
2019-02-02T05:07:05.798Z,4.00
2019-02-02T05:08:05.813Z,4.00
2019-02-02T05:09:05.816Z,4.00
2019-02-02T05:10:05.832Z,4.00
2019-02-02T05:11:05.839Z,0.00
2019-02-02T05:12:05.892Z,0.00
2019-02-02T05:13:05.856Z,4.00
2019-02-02T05:14:05.872Z,4.00
2019-02-02T05:15:05.879Z,4.00
2019-02-02T05:16:05.892Z,4.00
2019-02-02T05:17:05.895Z,0.00
2019-02-02T05:18:05.904Z,4.00
2019-02-02T05:19:05.918Z,4.00
2019-02-02T05:20:05.926Z,4.00
2019-02-02T05:21:05.933Z,0.00
2019-02-02T05:22:05.942Z,4.00
2019-02-02T05:23:05.947Z,0.00
2019-02-02T05:24:05.960Z,0.00
2019-02-02T05:25:05.969Z,0.00
2019-02-02T05:26:06.049Z,0.00
2019-02-02T05:27:05.991Z,4.00
2019-02-02T05:28:06.020Z,0.00
2019-02-02T05:29:06.013Z,4.00
2019-02-02T05:30:06.024Z,4.00
2019-02-02T05:31:06.034Z,4.00
2019-02-02T05:32:06.038Z,0.00
2019-02-02T05:33:06.048Z,4.00
2019-02-02T05:34:06.059Z,4.00
2019-02-02T05:35:06.072Z,4.00
2019-02-02T05:36:06.190Z,4.00
2019-02-02T05:37:06.102Z,4.00
2019-02-02T05:38:06.095Z,4.00
2019-02-02T05:39:06.113Z,4.00
2019-02-02T05:40:06.124Z,4.00
2019-02-02T05:41:06.134Z,4.00
2019-02-02T05:42:06.133Z,0.00
2019-02-02T05:43:06.141Z,4.00
2019-02-02T05:44:06.160Z,4.00
2019-02-02T05:45:06.160Z,4.00
2019-02-02T05:46:06.177Z,4.00
2019-02-02T05:47:06.176Z,4.00
2019-02-02T05:48:06.202Z,4.00
2019-02-02T05:49:06.216Z,4.00
2019-02-02T05:50:06.206Z,4.00
2019-02-02T05:51:06.217Z,0.00
2019-02-02T05:52:06.228Z,4.00
2019-02-02T05:53:06.238Z,4.00
2019-02-02T05:54:06.246Z,4.00
2019-02-02T05:55:06.271Z,4.00
2019-02-02T05:56:06.271Z,0.00
2019-02-02T05:57:06.271Z,0.00
2019-02-02T05:58:06.356Z,0.00
2019-02-02T05:59:06.299Z,4.00
2019-02-02T06:00:06.317Z,4.00
2019-02-02T06:01:06.314Z,0.00
2019-02-02T06:02:06.324Z,0.00
2019-02-02T06:03:06.337Z,4.00
2019-02-02T06:04:06.340Z,0.00
2019-02-02T06:05:06.357Z,0.00
2019-02-02T06:06:06.384Z,4.00
2019-02-02T06:07:06.383Z,4.00
2019-02-02T06:08:06.378Z,0.00
2019-02-02T06:09:06.388Z,0.00
2019-02-02T06:10:06.402Z,0.00
2019-02-02T06:11:06.529Z,4.00
2019-02-02T06:12:06.426Z,4.00
2019-02-02T06:13:06.452Z,4.00
2019-02-02T06:14:06.437Z,4.00
2019-02-02T06:15:06.448Z,0.00
2019-02-02T06:16:06.473Z,4.00
2019-02-02T06:17:06.476Z,4.00
2019-02-02T06:18:06.482Z,4.00
2019-02-02T06:19:06.485Z,4.00
2019-02-02T06:20:06.510Z,4.00
2019-02-02T06:21:06.514Z,4.00
2019-02-02T06:22:06.510Z,4.00
2019-02-02T06:23:06.523Z,4.00
2019-02-02T06:24:06.529Z,4.00
2019-02-02T06:25:06.546Z,4.00
2019-02-02T06:26:06.634Z,4.00
2019-02-02T06:27:06.555Z,4.00
2019-02-02T06:28:06.619Z,4.00
2019-02-02T06:29:06.678Z,4.00
2019-02-02T06:30:06.634Z,4.00
2019-02-02T06:31:06.600Z,4.00
2019-02-02T06:32:11.958Z,4.00
2019-02-02T06:33:06.623Z,4.00
2019-02-02T06:34:06.630Z,4.00
2019-02-02T06:35:06.636Z,4.00
2019-02-02T06:36:06.646Z,4.00
2019-02-02T06:37:06.657Z,4.00
2019-02-02T06:38:06.662Z,4.00
2019-02-02T06:39:06.671Z,4.00
2019-02-02T06:40:06.690Z,4.00
2019-02-02T06:41:06.694Z,4.00
2019-02-02T06:42:06.723Z,4.00
2019-02-02T06:43:06.713Z,4.00
2019-02-02T06:44:06.721Z,0.00
2019-02-02T06:45:06.724Z,4.00
2019-02-02T06:46:06.773Z,4.00
2019-02-02T06:47:06.797Z,4.00
2019-02-02T06:48:06.759Z,4.00
2019-02-02T06:49:06.761Z,4.00
2019-02-02T06:50:06.774Z,4.00
2019-02-02T06:51:06.780Z,8.00
2019-02-02T06:52:06.790Z,8.00
2019-02-02T06:53:06.800Z,8.00
2019-02-02T06:54:06.814Z,4.00
2019-02-02T06:55:06.819Z,8.00
2019-02-02T06:56:06.840Z,8.00
2019-02-02T06:57:06.841Z,12.00
2019-02-02T06:58:06.850Z,12.00
2019-02-02T06:59:06.859Z,12.00
2019-02-02T07:00:15.870Z,12.00
2019-02-02T07:01:06.889Z,16.00
2019-02-02T07:02:06.895Z,16.00
2019-02-02T07:03:06.991Z,16.00
2019-02-02T07:04:06.924Z,16.00
2019-02-02T07:05:06.928Z,16.00
2019-02-02T07:06:06.922Z,16.00
2019-02-02T07:07:06.934Z,20.00
2019-02-02T07:08:06.978Z,20.00
2019-02-02T07:09:06.957Z,24.00
2019-02-02T07:10:06.971Z,24.00
2019-02-02T07:11:06.975Z,28.00
2019-02-02T07:12:06.982Z,32.00
2019-02-02T07:13:07.003Z,36.00
2019-02-02T07:14:07.008Z,36.00
2019-02-02T07:15:07.023Z,44.00
2019-02-02T07:16:07.029Z,48.00
2019-02-02T07:17:07.058Z,52.00
2019-02-02T07:18:07.037Z,60.00
2019-02-02T07:19:07.060Z,68.00
2019-02-02T07:20:07.063Z,68.00
2019-02-02T07:21:07.076Z,72.00
2019-02-02T07:22:07.093Z,76.00
2019-02-02T07:23:07.084Z,76.00
2019-02-02T07:24:07.102Z,76.00
2019-02-02T07:25:07.104Z,80.00
2019-02-02T07:26:07.114Z,80.00
2019-02-02T07:27:07.165Z,80.00
2019-02-02T07:28:07.134Z,80.00
2019-02-02T07:29:07.139Z,84.00
2019-02-02T07:30:07.206Z,88.00
2019-02-02T07:31:07.196Z,88.00
2019-02-02T07:32:07.163Z,96.00
2019-02-02T07:33:07.173Z,100.00
2019-02-02T07:34:07.188Z,108.00
2019-02-02T07:35:07.239Z,116.00
2019-02-02T07:36:07.227Z,124.00
2019-02-02T07:37:07.230Z,132.00
2019-02-02T07:38:07.223Z,140.00
2019-02-02T07:39:07.222Z,152.00
2019-02-02T07:40:07.236Z,160.00
2019-02-02T07:41:07.259Z,176.00
2019-02-02T07:42:07.259Z,192.00
2019-02-02T07:43:07.260Z,212.00
2019-02-02T07:44:07.421Z,236.00
2019-02-02T07:45:07.314Z,260.00
2019-02-02T07:46:14.696Z,288.00
2019-02-02T07:47:09.228Z,316.00
2019-02-02T07:48:07.323Z,344.00
2019-02-02T07:49:07.328Z,368.00
2019-02-02T07:50:07.587Z,392.00
2019-02-02T07:51:07.355Z,412.00
2019-02-02T07:52:07.363Z,428.00
2019-02-02T07:53:07.359Z,444.00
2019-02-02T07:54:07.364Z,456.00
2019-02-02T07:55:07.373Z,468.00
2019-02-02T07:56:07.384Z,472.00
2019-02-02T07:57:07.390Z,480.00
2019-02-02T07:58:07.408Z,476.00
2019-02-02T07:59:07.413Z,476.00
2019-02-02T08:00:07.418Z,472.00
2019-02-02T08:01:07.428Z,468.00
2019-02-02T08:02:07.443Z,464.00
2019-02-02T08:03:07.448Z,456.00
2019-02-02T08:04:07.456Z,456.00
2019-02-02T08:05:07.471Z,452.00
2019-02-02T08:06:07.525Z,452.00
2019-02-02T08:07:07.532Z,448.00
2019-02-02T08:08:07.501Z,448.00
2019-02-02T08:09:07.505Z,444.00
2019-02-02T08:10:07.515Z,448.00
2019-02-02T08:11:07.535Z,444.00
2019-02-02T08:12:07.541Z,444.00
2019-02-02T08:13:07.560Z,444.00
2019-02-02T08:14:07.551Z,448.00
2019-02-02T08:15:07.564Z,452.00
2019-02-02T08:16:07.569Z,460.00
2019-02-02T08:17:07.577Z,476.00
2019-02-02T08:18:07.728Z,496.00
2019-02-02T08:19:07.596Z,520.00
2019-02-02T08:20:07.611Z,540.00
2019-02-02T08:21:07.614Z,572.00
2019-02-02T08:22:07.623Z,608.00
2019-02-02T08:23:07.635Z,652.00
2019-02-02T08:24:07.641Z,704.00
2019-02-02T08:25:07.660Z,752.00
2019-02-02T08:26:07.672Z,792.00
2019-02-02T08:27:07.685Z,824.00
2019-02-02T08:28:07.687Z,856.00
2019-02-02T08:29:07.693Z,884.00
2019-02-02T08:30:07.703Z,896.00
2019-02-02T08:31:07.711Z,904.00
2019-02-02T08:32:07.736Z,916.00
2019-02-02T08:33:07.728Z,920.00
2019-02-02T08:34:07.742Z,916.00
2019-02-02T08:35:07.879Z,900.00
2019-02-02T08:36:07.836Z,876.00
2019-02-02T08:37:07.792Z,856.00
2019-02-02T08:38:07.776Z,836.00
2019-02-02T08:39:07.789Z,824.00
2019-02-02T08:40:07.816Z,808.00
2019-02-02T08:41:07.807Z,792.00
2019-02-02T08:42:07.818Z,780.00
2019-02-02T08:43:07.886Z,764.00
2019-02-02T08:44:07.842Z,756.00
2019-02-02T08:45:07.848Z,752.00
2019-02-02T08:46:07.855Z,748.00
2019-02-02T08:47:07.861Z,752.00
2019-02-02T08:48:07.868Z,752.00
2019-02-02T08:49:07.886Z,756.00
2019-02-02T08:50:07.891Z,744.00
2019-02-02T08:51:07.897Z,752.00
2019-02-02T08:52:07.918Z,752.00
2019-02-02T08:53:07.922Z,748.00
2019-02-02T08:54:07.938Z,740.00
2019-02-02T08:55:07.939Z,732.00
2019-02-02T08:56:08.601Z,724.00
2019-02-02T08:57:08.035Z,708.00
2019-02-02T08:58:07.964Z,696.00
2019-02-02T08:59:08.024Z,684.00
2019-02-02T09:00:08.254Z,672.00
2019-02-02T09:01:07.998Z,660.00
2019-02-02T09:02:08.033Z,656.00
2019-02-02T09:03:08.028Z,656.00
2019-02-02T09:04:08.043Z,660.00
2019-02-02T09:05:08.163Z,672.00
2019-02-02T09:06:08.181Z,684.00
2019-02-02T09:07:08.724Z,704.00
2019-02-02T09:08:08.231Z,724.00
2019-02-02T09:09:08.070Z,744.00
2019-02-02T09:10:08.077Z,772.00
2019-02-02T09:11:08.087Z,800.00
2019-02-02T09:12:08.093Z,840.00
2019-02-02T09:13:08.152Z,892.00
2019-02-02T09:14:08.122Z,936.00
2019-02-02T09:15:08.126Z,972.00
2019-02-02T09:16:08.135Z,1004.00
2019-02-02T09:17:08.148Z,1012.00
2019-02-02T09:18:08.172Z,1008.00
2019-02-02T09:19:08.171Z,1024.00
2019-02-02T09:20:08.183Z,1032.00
2019-02-02T09:21:08.207Z,1024.00
2019-02-02T09:22:08.198Z,1000.00
2019-02-02T09:23:08.205Z,980.00
2019-02-02T09:24:08.212Z,996.00
2019-02-02T09:25:08.229Z,1044.00
2019-02-02T09:26:08.244Z,1096.00
2019-02-02T09:27:08.241Z,1148.00
2019-02-02T09:28:08.244Z,1188.00
2019-02-02T09:29:10.373Z,1212.00
2019-02-02T09:30:08.264Z,1236.00
2019-02-02T09:31:15.534Z,1240.00
2019-02-02T09:32:08.283Z,1244.00
2019-02-02T09:33:08.297Z,1240.00
2019-02-02T09:34:08.304Z,1228.00
2019-02-02T09:35:08.313Z,1224.00
2019-02-02T09:36:08.340Z,1224.00
2019-02-02T09:38:08.405Z,1276.00
2019-02-02T09:40:08.547Z,1396.00
2019-02-02T09:41:08.842Z,1456.00
2019-02-02T09:42:08.413Z,1500.00
2019-02-02T09:43:08.479Z,1532.00
2019-02-02T09:44:08.405Z,1544.00
2019-02-02T09:45:08.417Z,1508.00
2019-02-02T09:46:08.426Z,1428.00
2019-02-02T09:47:08.439Z,1352.00
2019-02-02T09:48:08.471Z,1280.00
2019-02-02T09:49:08.444Z,1236.00
2019-02-02T09:50:08.461Z,1216.00
2019-02-02T09:51:08.469Z,1192.00
2019-02-02T09:52:08.479Z,1172.00
2019-02-02T09:53:08.489Z,1148.00
2019-02-02T09:54:09.238Z,1128.00
2019-02-02T09:55:08.502Z,1104.00
2019-02-02T09:56:08.551Z,1088.00
2019-02-02T09:57:08.535Z,1076.00
2019-02-02T09:58:08.984Z,1076.00
2019-02-02T09:59:09.868Z,1084.00
2019-02-02T10:00:08.550Z,1096.00
2019-02-02T10:01:08.562Z,1112.00
2019-02-02T10:02:08.605Z,1124.00
2019-02-02T10:03:08.877Z,1148.00
2019-02-02T10:04:08.608Z,1172.00
2019-02-02T10:05:08.600Z,1224.00
2019-02-02T10:06:08.748Z,1280.00
2019-02-02T10:07:08.617Z,1332.00
2019-02-02T10:08:08.628Z,1368.00
2019-02-02T10:09:08.644Z,1392.00
2019-02-02T10:10:08.709Z,1404.00
2019-02-02T10:12:08.716Z,1416.00
2019-02-02T10:13:08.679Z,1400.00
2019-02-02T10:14:08.690Z,1372.00
2019-02-02T10:15:08.726Z,1332.00
2019-02-02T10:17:08.720Z,1264.00
2019-02-02T10:18:08.725Z,1240.00
2019-02-02T10:19:08.739Z,1224.00
2019-02-02T10:20:08.755Z,1208.00
2019-02-02T10:21:08.752Z,1184.00
2019-02-02T10:22:08.765Z,1164.00
2019-02-02T10:23:08.783Z,1152.00
2019-02-02T10:25:08.945Z,1140.00
2019-02-02T10:26:08.809Z,1160.00
2019-02-02T10:27:08.810Z,1188.00
2019-02-02T10:28:08.826Z,1220.00
2019-02-02T10:29:08.833Z,1232.00
2019-02-02T10:30:08.840Z,1224.00
2019-02-02T10:31:08.906Z,1212.00
2019-02-02T10:32:08.869Z,1196.00
2019-02-02T10:33:08.869Z,1192.00
2019-02-02T10:35:08.900Z,1228.00
2019-02-02T10:36:08.899Z,1268.00
2019-02-02T10:37:08.908Z,1292.00
2019-02-02T10:38:08.916Z,1304.00
2019-02-02T10:39:08.939Z,1296.00
2019-02-02T10:40:08.934Z,1260.00
2019-02-02T10:42:08.955Z,1252.00
2019-02-02T10:43:09.076Z,1260.00
2019-02-02T10:44:10.757Z,1276.00
2019-02-02T10:45:08.985Z,1292.00
2019-02-02T10:46:10.851Z,1296.00
2019-02-02T10:47:09.023Z,1324.00
2019-02-02T10:48:09.025Z,1356.00
2019-02-02T10:49:09.031Z,1388.00
2019-02-02T10:50:09.038Z,1420.00
2019-02-02T10:51:09.043Z,1460.00
2019-02-02T10:52:09.059Z,1512.00
2019-02-02T10:53:09.064Z,1560.00
2019-02-02T10:54:09.072Z,1640.00
2019-02-02T10:55:09.487Z,1724.00
2019-02-02T10:56:09.094Z,1780.00
2019-02-02T10:57:09.651Z,1804.00
2019-02-02T10:58:09.162Z,1788.00
2019-02-02T10:59:09.133Z,1756.00
2019-02-02T11:00:09.136Z,1700.00
2019-02-02T11:01:09.140Z,1644.00
2019-02-02T11:02:09.155Z,1632.00
2019-02-02T11:03:09.165Z,1556.00
2019-02-02T11:04:09.180Z,1504.00
2019-02-02T11:05:09.227Z,1448.00
2019-02-02T11:06:09.205Z,1432.00
2019-02-02T11:07:09.262Z,1404.00
2019-02-02T11:08:09.337Z,1368.00
2019-02-02T11:09:09.222Z,1320.00
2019-02-02T11:10:09.252Z,1240.00
2019-02-02T11:11:09.376Z,1200.00
2019-02-02T11:12:09.288Z,1184.00
2019-02-02T11:13:09.366Z,1136.00
2019-02-02T11:14:09.266Z,1092.00
2019-02-02T11:15:09.354Z,1032.00
2019-02-02T11:16:09.375Z,984.00
2019-02-02T11:17:09.416Z,944.00
2019-02-02T11:18:09.313Z,936.00
2019-02-02T11:19:09.326Z,904.00
2019-02-02T11:20:09.461Z,892.00
2019-02-02T11:21:09.368Z,908.00
2019-02-02T11:22:09.407Z,888.00
2019-02-02T11:23:09.393Z,896.00
2019-02-02T11:24:09.417Z,920.00
2019-02-02T11:25:09.463Z,924.00
2019-02-02T11:26:09.517Z,940.00
2019-02-02T11:27:12.438Z,936.00
2019-02-02T11:28:09.591Z,948.00
2019-02-02T11:29:09.472Z,984.00
2019-02-02T11:30:09.455Z,1024.00
2019-02-02T11:31:09.453Z,1044.00
2019-02-02T11:32:09.455Z,1024.00
2019-02-02T11:33:09.475Z,1012.00
2019-02-02T11:34:09.464Z,996.00
2019-02-02T11:35:09.473Z,1024.00
2019-02-02T11:36:09.480Z,1060.00
2019-02-02T11:37:09.496Z,1088.00
2019-02-02T11:38:09.502Z,1124.00
2019-02-02T11:39:09.516Z,1152.00
2019-02-02T11:40:09.533Z,1176.00
2019-02-02T11:41:09.543Z,1204.00
2019-02-02T11:42:09.544Z,1224.00
2019-02-02T11:43:09.550Z,1220.00
2019-02-02T11:44:09.560Z,1192.00
2019-02-02T11:45:09.572Z,1144.00
2019-02-02T11:46:09.581Z,1120.00
2019-02-02T11:47:09.668Z,1128.00
2019-02-02T11:48:09.632Z,1156.00
2019-02-02T11:49:09.675Z,1172.00
2019-02-02T11:50:09.617Z,1148.00
2019-02-02T11:51:09.629Z,1108.00
2019-02-02T11:52:09.653Z,1080.00
2019-02-02T11:53:09.648Z,1092.00
2019-02-02T11:54:09.681Z,1096.00
2019-02-02T11:55:09.671Z,1088.00
2019-02-02T11:56:09.675Z,1084.00
2019-02-02T11:57:09.690Z,1100.00
2019-02-02T11:58:09.706Z,1108.00
2019-02-02T11:59:09.710Z,1120.00
2019-02-02T12:00:09.715Z,1136.00
2019-02-02T12:01:09.724Z,1152.00
2019-02-02T12:02:14.506Z,1168.00
2019-02-02T12:03:09.743Z,1172.00
2019-02-02T12:04:09.753Z,1168.00
2019-02-02T12:05:09.773Z,1156.00
2019-02-02T12:06:09.776Z,1136.00
2019-02-02T12:07:09.936Z,1112.00
2019-02-02T12:08:09.801Z,1092.00
2019-02-02T12:09:09.818Z,1072.00
2019-02-02T12:10:09.810Z,1052.00
2019-02-02T12:11:09.817Z,1052.00
2019-02-02T12:12:09.832Z,1068.00
2019-02-02T12:13:09.849Z,1072.00
2019-02-02T12:14:09.845Z,1064.00
2019-02-02T12:15:09.870Z,1056.00
2019-02-02T12:16:09.879Z,1040.00
2019-02-02T12:17:09.874Z,1012.00
2019-02-02T12:18:11.774Z,980.00
2019-02-02T12:19:09.899Z,948.00
2019-02-02T12:20:09.909Z,928.00
2019-02-02T12:21:09.920Z,908.00
2019-02-02T12:22:09.933Z,880.00
2019-02-02T12:23:09.939Z,840.00
2019-02-02T12:24:15.965Z,800.00
2019-02-02T12:25:09.958Z,764.00
2019-02-02T12:26:09.960Z,752.00
2019-02-02T12:27:10.010Z,744.00
2019-02-02T12:28:09.987Z,724.00
2019-02-02T12:29:09.992Z,712.00
2019-02-02T12:30:10.008Z,692.00
2019-02-02T12:31:10.013Z,680.00
2019-02-02T12:32:10.020Z,668.00
2019-02-02T12:33:10.041Z,656.00
2019-02-02T12:34:10.043Z,636.00
2019-02-02T12:35:10.312Z,616.00
2019-02-02T12:36:10.080Z,604.00
2019-02-02T12:37:10.075Z,588.00
2019-02-02T12:38:10.076Z,572.00
2019-02-02T12:39:10.101Z,564.00
2019-02-02T12:40:10.099Z,560.00
2019-02-02T12:41:10.126Z,552.00
2019-02-02T12:42:10.618Z,548.00
2019-02-02T12:43:11.682Z,564.00
2019-02-02T12:44:10.292Z,576.00
2019-02-02T12:45:10.193Z,580.00
2019-02-02T12:46:10.155Z,588.00
2019-02-02T12:47:10.177Z,616.00
2019-02-02T12:48:10.177Z,620.00
2019-02-02T12:49:10.189Z,640.00
2019-02-02T12:50:10.209Z,684.00
2019-02-02T12:51:10.209Z,708.00
2019-02-02T12:52:10.214Z,736.00
2019-02-02T12:53:10.555Z,744.00
2019-02-02T12:54:10.248Z,760.00
2019-02-02T12:55:10.272Z,756.00
2019-02-02T12:56:10.253Z,788.00
2019-02-02T12:57:10.286Z,828.00